LAI weather

La Irlanda Airport
El Paso, César Department, Colombia

Public forecast

Using degrees Celsius for public forecast. Weather courtesy of forecast.io.

METAR (pilot weather report)

Closest report is Alfonso López Pumarejo Airport, 53.9 nm (99.8 km) NNE. Retrieved 2019/04/22 03:00 UTC (38 minutes ago):

SKVP 220300Z 07012KT 9999 FEW020 SCT100 29/20 A2994

TAF (pilot weather forecast)

Forecast is more than 12 hours old.

Closest forecast is Ernesto Cortissoz International Airport, 102.1 nm (189.1 km) NW. Retrieved 2019/04/21 00:00 UTC (1 day ago):

TAF SKBQ 212230Z 2200/2224 01004KT 9999 SCT015CB TEMPO 2200/2202 TSRA TEMPO 2208/2111 4000 BR BKN008 BECMG 2218/2220 02014KT FEW015CB TX33/2218Z TN25/2210Z